sensor_id;sensor_type;location;lat;lon;timestamp;pressure;altitude;pressure_sealevel;temperature
75431;BMP280;64127;51.488;5.462;2023-07-13T00:02:09;101202.13;;;20.40
75431;BMP280;64127;51.488;5.462;2023-07-13T00:04:47;101177.97;;;20.20
75431;BMP280;64127;51.488;5.462;2023-07-13T00:07:19;101209.16;;;20.32
75431;BMP280;64127;51.488;5.462;2023-07-13T00:09:52;101201.13;;;20.28
75431;BMP280;64127;51.488;5.462;2023-07-13T00:12:31;101195.69;;;20.18
75431;BMP280;64127;51.488;5.462;2023-07-13T00:15:12;101194.84;;;20.24
75431;BMP280;64127;51.488;5.462;2023-07-13T00:17:44;101191.38;;;20.30
75431;BMP280;64127;51.488;5.462;2023-07-13T00:20:17;101183.31;;;20.20
75431;BMP280;64127;51.488;5.462;2023-07-13T00:22:49;101201.94;;;20.22
75431;BMP280;64127;51.488;5.462;2023-07-13T00:25:23;101205.47;;;20.21
75431;BMP280;64127;51.488;5.462;2023-07-13T00:28:00;101192.91;;;20.02
75431;BMP280;64127;51.488;5.462;2023-07-13T00:30:32;101198.19;;;19.96
75431;BMP280;64127;51.488;5.462;2023-07-13T00:33:04;101197.31;;;19.98
75431;BMP280;64127;51.488;5.462;2023-07-13T00:35:49;101206.16;;;19.94
75431;BMP280;64127;51.488;5.462;2023-07-13T00:38:23;101182.06;;;19.81
75431;BMP280;64127;51.488;5.462;2023-07-13T00:40:55;101207.88;;;19.88
75431;BMP280;64127;51.488;5.462;2023-07-13T00:43:28;101205.13;;;19.79
75431;BMP280;64127;51.488;5.462;2023-07-13T00:48:35;101203.28;;;19.71
75431;BMP280;64127;51.488;5.462;2023-07-13T00:51:13;101201.47;;;19.67
75431;BMP280;64127;51.488;5.462;2023-07-13T00:53:46;101210.41;;;19.72
75431;BMP280;64127;51.488;5.462;2023-07-13T00:56:18;101185.44;;;19.61
75431;BMP280;64127;51.488;5.462;2023-07-13T00:58:50;101217.59;;;19.83
75431;BMP280;64127;51.488;5.462;2023-07-13T01:01:23;101212.22;;;19.80
75431;BMP280;64127;51.488;5.462;2023-07-13T01:03:55;101217.53;;;19.80
75431;BMP280;64127;51.488;5.462;2023-07-13T01:06:29;101216.66;;;19.79
75431;BMP280;64127;51.488;5.462;2023-07-13T01:09:06;101185.38;;;19.54
75431;BMP280;64127;51.488;5.462;2023-07-13T01:11:40;101212.09;;;19.67
75431;BMP280;64127;51.488;5.462;2023-07-13T01:14:13;101191.53;;;19.50
75431;BMP280;64127;51.488;5.462;2023-07-13T01:16:47;101202.19;;;19.53
75431;BMP280;64127;51.488;5.462;2023-07-13T01:19:38;101227.09;;;19.58
75431;BMP280;64127;51.488;5.462;2023-07-13T01:22:16;101227.03;;;19.53
75431;BMP280;64127;51.488;5.462;2023-07-13T01:24:49;101181.56;;;19.35
75431;BMP280;64127;51.488;5.462;2023-07-13T01:27:26;101210.94;;;19.41
75431;BMP280;64127;51.488;5.462;2023-07-13T01:29:58;101203.00;;;19.44
75431;BMP280;64127;51.488;5.462;2023-07-13T01:32:35;101198.44;;;19.37
75431;BMP280;64127;51.488;5.462;2023-07-13T01:35:08;101221.59;;;19.43
75431;BMP280;64127;51.488;5.462;2023-07-13T01:37:43;101228.72;;;19.47
75431;BMP280;64127;51.488;5.462;2023-07-13T01:40:16;101229.56;;;19.43
75431;BMP280;64127;51.488;5.462;2023-07-13T01:42:49;101225.91;;;19.36
75431;BMP280;64127;51.488;5.462;2023-07-13T01:45:23;101216.94;;;19.28
75431;BMP280;64127;51.488;5.462;2023-07-13T01:47:59;101234.81;;;19.38
75431;BMP280;64127;51.488;5.462;2023-07-13T01:50:32;101220.50;;;19.29
75431;BMP280;64127;51.488;5.462;2023-07-13T01:53:05;101240.22;;;19.41
75431;BMP280;64127;51.488;5.462;2023-07-13T01:55:37;101243.66;;;19.37
75431;BMP280;64127;51.488;5.462;2023-07-13T01:58:09;101240.94;;;19.33
75431;BMP280;64127;51.488;5.462;2023-07-13T02:00:44;101245.28;;;19.26
75431;BMP280;64127;51.488;5.462;2023-07-13T02:03:16;101216.75;;;19.10
75431;BMP280;64127;51.488;5.462;2023-07-13T02:05:50;101234.59;;;19.20
75431;BMP280;64127;51.488;5.462;2023-07-13T02:08:22;101242.53;;;19.17
75431;BMP280;64127;51.488;5.462;2023-07-13T02:10:54;101250.47;;;19.14
75431;BMP280;64127;51.488;5.462;2023-07-13T02:13:27;101248.63;;;19.10
75431;BMP280;64127;51.488;5.462;2023-07-13T02:15:59;101242.41;;;19.08
75431;BMP280;64127;51.488;5.462;2023-07-13T02:18:31;101260.19;;;19.12
75431;BMP280;64127;51.488;5.462;2023-07-13T02:21:03;101237.88;;;19.01
75431;BMP280;64127;51.488;5.462;2023-07-13T02:23:35;101235.16;;;18.98
75431;BMP280;64127;51.488;5.462;2023-07-13T02:26:08;101186.13;;;18.71
75431;BMP280;64127;51.488;5.462;2023-07-13T02:28:40;101243.31;;;19.10
75431;BMP280;64127;51.488;5.462;2023-07-13T02:31:16;101241.53;;;19.09
75431;BMP280;64127;51.488;5.462;2023-07-13T02:33:48;101223.59;;;18.93
75431;BMP280;64127;51.488;5.462;2023-07-13T02:36:20;101247.63;;;19.02
75431;BMP280;64127;51.488;5.462;2023-07-13T02:38:52;101228.84;;;18.87
75431;BMP280;64127;51.488;5.462;2023-07-13T02:41:24;101241.22;;;18.88
75431;BMP280;64127;51.488;5.462;2023-07-13T02:43:58;101250.09;;;18.87
75431;BMP280;64127;51.488;5.462;2023-07-13T02:46:37;101238.31;;;18.68
75431;BMP280;64127;51.488;5.462;2023-07-13T02:49:09;101244.53;;;18.68
75431;BMP280;64127;51.488;5.462;2023-07-13T02:51:42;101248.97;;;18.71
75431;BMP280;64127;51.488;5.462;2023-07-13T02:54:14;101221.25;;;18.52
75431;BMP280;64127;51.488;5.462;2023-07-13T02:56:46;101251.63;;;18.69
75431;BMP280;64127;51.488;5.462;2023-07-13T02:59:18;101239.94;;;18.60
75431;BMP280;64127;51.488;5.462;2023-07-13T03:01:50;101223.06;;;18.56
75431;BMP280;64127;51.488;5.462;2023-07-13T03:04:23;101256.09;;;18.73
75431;BMP280;64127;51.488;5.462;2023-07-13T03:06:55;101254.41;;;18.79
75431;BMP280;64127;51.488;5.462;2023-07-13T03:09:30;101217.72;;;18.53
75431;BMP280;64127;51.488;5.462;2023-07-13T03:12:03;101260.50;;;18.71
75431;BMP280;64127;51.488;5.462;2023-07-13T03:14:35;101254.25;;;18.68
75431;BMP280;64127;51.488;5.462;2023-07-13T03:17:07;101228.34;;;18.53
75431;BMP280;64127;51.488;5.462;2023-07-13T03:19:40;101249.72;;;18.59
75431;BMP280;64127;51.488;5.462;2023-07-13T03:22:12;101229.06;;;18.45
75431;BMP280;64127;51.488;5.462;2023-07-13T03:24:45;101244.28;;;18.53
75431;BMP280;64127;51.488;5.462;2023-07-13T03:27:18;101253.22;;;18.60
75431;BMP280;64127;51.488;5.462;2023-07-13T03:29:50;101218.50;;;18.48
75431;BMP280;64127;51.488;5.462;2023-07-13T03:32:22;101256.78;;;18.60
75431;BMP280;64127;51.488;5.462;2023-07-13T03:34:54;101262.06;;;18.57
75431;BMP280;64127;51.488;5.462;2023-07-13T03:37:26;101275.41;;;18.63
75431;BMP280;64127;51.488;5.462;2023-07-13T03:39:59;101271.00;;;18.62
75431;BMP280;64127;51.488;5.462;2023-07-13T03:42:31;101219.06;;;18.27
75431;BMP280;64127;51.488;5.462;2023-07-13T03:45:04;101270.78;;;18.50
75431;BMP280;64127;51.488;5.462;2023-07-13T03:47:36;101283.22;;;18.51
75431;BMP280;64127;51.488;5.462;2023-07-13T03:50:09;101269.72;;;18.41
75431;BMP280;64127;51.488;5.462;2023-07-13T03:52:43;101288.44;;;18.48
75431;BMP280;64127;51.488;5.462;2023-07-13T03:55:16;101287.63;;;18.51
75431;BMP280;64127;51.488;5.462;2023-07-13T03:57:58;101284.06;;;18.50
75431;BMP280;64127;51.488;5.462;2023-07-13T04:00:30;101260.91;;;18.42
75431;BMP280;64127;51.488;5.462;2023-07-13T04:03:03;101248.31;;;18.30
75431;BMP280;64127;51.488;5.462;2023-07-13T04:05:35;101277.78;;;18.45
75431;BMP280;64127;51.488;5.462;2023-07-13T04:08:07;101217.78;;;18.04
75431;BMP280;64127;51.488;5.462;2023-07-13T04:10:40;101265.94;;;18.25
75431;BMP280;64127;51.488;5.462;2023-07-13T04:13:12;101281.00;;;18.29
75431;BMP280;64127;51.488;5.462;2023-07-13T04:15:44;101302.44;;;18.38
75431;BMP280;64127;51.488;5.462;2023-07-13T04:18:16;101283.56;;;18.21
75431;BMP280;64127;51.488;5.462;2023-07-13T04:20:50;101305.09;;;18.38
75431;BMP280;64127;51.488;5.462;2023-07-13T04:23:22;101312.25;;;18.44
75431;BMP280;64127;51.488;5.462;2023-07-13T04:25:54;101304.28;;;18.42
75431;BMP280;64127;51.488;5.462;2023-07-13T04:28:26;101294.38;;;18.32
75431;BMP280;64127;51.488;5.462;2023-07-13T04:30:59;101303.19;;;18.33
75431;BMP280;64127;51.488;5.462;2023-07-13T04:33:31;101300.63;;;18.37
75431;BMP280;64127;51.488;5.462;2023-07-13T04:36:05;101319.25;;;18.39
75431;BMP280;64127;51.488;5.462;2023-07-13T04:38:38;101309.50;;;18.39
75431;BMP280;64127;51.488;5.462;2023-07-13T04:41:10;101321.16;;;18.47
75431;BMP280;64127;51.488;5.462;2023-07-13T04:43:43;101245.22;;;18.04
75431;BMP280;64127;51.488;5.462;2023-07-13T04:46:17;101322.16;;;18.51
75431;BMP280;64127;51.488;5.462;2023-07-13T04:48:52;101320.38;;;18.51
75431;BMP280;64127;51.488;5.462;2023-07-13T04:51:25;101320.25;;;18.45
75431;BMP280;64127;51.488;5.462;2023-07-13T04:53:58;101249.59;;;18.01
75431;BMP280;64127;51.488;5.462;2023-07-13T04:56:33;101328.41;;;18.54
75431;BMP280;64127;51.488;5.462;2023-07-13T04:59:08;101304.34;;;18.47
75431;BMP280;64127;51.488;5.462;2023-07-13T05:01:40;101286.59;;;18.44
75431;BMP280;64127;51.488;5.462;2023-07-13T05:04:12;101308.06;;;18.55
75431;BMP280;64127;51.488;5.462;2023-07-13T05:06:47;101301.88;;;18.56
75431;BMP280;64127;51.488;5.462;2023-07-13T05:09:19;101330.44;;;18.69
75431;BMP280;64127;51.488;5.462;2023-07-13T05:11:54;101323.28;;;18.65
75431;BMP280;64127;51.488;5.462;2023-07-13T05:14:26;101341.19;;;18.78
75431;BMP280;64127;51.488;5.462;2023-07-13T05:16:58;101281.34;;;18.47
75431;BMP280;64127;51.488;5.462;2023-07-13T05:19:30;101331.50;;;18.82
75431;BMP280;64127;51.488;5.462;2023-07-13T05:22:05;101328.88;;;18.83
75431;BMP280;64127;51.488;5.462;2023-07-13T05:24:40;101344.03;;;18.89
75431;BMP280;64127;51.488;5.462;2023-07-13T05:27:12;101341.34;;;18.89
75431;BMP280;64127;51.488;5.462;2023-07-13T05:29:46;101371.53;;;18.92
75431;BMP280;64127;51.488;5.462;2023-07-13T05:32:19;101301.94;;;18.60
75431;BMP280;64127;51.488;5.462;2023-07-13T05:34:51;101363.47;;;18.88
75431;BMP280;64127;51.488;5.462;2023-07-13T05:37:23;101225.75;;;18.04
75431;BMP280;64127;51.488;5.462;2023-07-13T05:39:58;101366.94;;;18.82
75431;BMP280;64127;51.488;5.462;2023-07-13T05:42:30;101361.59;;;18.81
75431;BMP280;64127;51.488;5.462;2023-07-13T05:45:03;101363.47;;;18.88
75431;BMP280;64127;51.488;5.462;2023-07-13T05:47:37;101362.56;;;18.86
75431;BMP280;64127;51.488;5.462;2023-07-13T05:50:10;101350.00;;;18.76
75431;BMP280;64127;51.488;5.462;2023-07-13T05:52:42;101342.94;;;18.78
75431;BMP280;64127;51.488;5.462;2023-07-13T05:55:14;101301.72;;;18.50
75431;BMP280;64127;51.488;5.462;2023-07-13T05:57:47;101377.78;;;18.96
75431;BMP280;64127;51.488;5.462;2023-07-13T06:00:19;101381.22;;;18.89
75431;BMP280;64127;51.488;5.462;2023-07-13T06:02:52;101382.16;;;18.92
75431;BMP280;64127;51.488;5.462;2023-07-13T06:05:25;101384.91;;;18.97
75431;BMP280;64127;51.488;5.462;2023-07-13T06:07:57;101383.16;;;18.99
75431;BMP280;64127;51.488;5.462;2023-07-13T06:10:32;101393.09;;;19.12
75431;BMP280;64127;51.488;5.462;2023-07-13T06:13:05;101400.28;;;19.17
75431;BMP280;64127;51.488;5.462;2023-07-13T06:15:37;101385.16;;;19.15
75431;BMP280;64127;51.488;5.462;2023-07-13T06:18:09;101399.41;;;19.17
75431;BMP280;64127;51.488;5.462;2023-07-13T06:20:42;101394.03;;;19.14
75431;BMP280;64127;51.488;5.462;2023-07-13T06:23:14;101404.88;;;19.28
75431;BMP280;64127;51.488;5.462;2023-07-13T06:25:46;101406.66;;;19.29
75431;BMP280;64127;51.488;5.462;2023-07-13T06:28:19;101397.88;;;19.34
75431;BMP280;64127;51.488;5.462;2023-07-13T06:30:51;101399.72;;;19.38
75431;BMP280;64127;51.488;5.462;2023-07-13T06:33:23;101381.06;;;19.37
75431;BMP280;64127;51.488;5.462;2023-07-13T06:35:55;101269.28;;;18.67
75431;BMP280;64127;51.488;5.462;2023-07-13T06:38:30;101413.19;;;19.49
75431;BMP280;64127;51.488;5.462;2023-07-13T06:41:08;101397.97;;;19.40
75431;BMP280;64127;51.488;5.462;2023-07-13T06:43:41;101358.59;;;19.15
75431;BMP280;64127;51.488;5.462;2023-07-13T06:46:13;101412.31;;;19.48
75431;BMP280;64127;51.488;5.462;2023-07-13T06:48:45;101367.53;;;19.20
75431;BMP280;64127;51.488;5.462;2023-07-13T06:51:18;101396.25;;;19.41
75431;BMP280;64127;51.488;5.462;2023-07-13T06:53:56;101411.41;;;19.48
75431;BMP280;64127;51.488;5.462;2023-07-13T06:56:28;101379.16;;;19.28
75431;BMP280;64127;51.488;5.462;2023-07-13T06:59:00;101419.56;;;19.58
75431;BMP280;64127;51.488;5.462;2023-07-13T07:01:36;101385.50;;;19.36
75431;BMP280;64127;51.488;5.462;2023-07-13T07:04:18;101291.72;;;18.86
75431;BMP280;64127;51.488;5.462;2023-07-13T07:06:59;101378.50;;;19.41
75431;BMP280;64127;51.488;5.462;2023-07-13T07:09:32;101432.22;;;19.78
75431;BMP280;64127;51.488;5.462;2023-07-13T07:12:09;101426.06;;;19.82
75431;BMP280;64127;51.488;5.462;2023-07-13T07:14:49;101380.53;;;19.60
75431;BMP280;64127;51.488;5.462;2023-07-13T07:17:23;101418.09;;;19.82
75431;BMP280;64127;51.488;5.462;2023-07-13T07:20:04;101320.63;;;19.25
75431;BMP280;64127;51.488;5.462;2023-07-13T07:22:39;101292.09;;;19.13
75431;BMP280;64127;51.488;5.462;2023-07-13T07:25:19;101426.22;;;19.92
75431;BMP280;64127;51.488;5.462;2023-07-13T07:27:55;101297.56;;;19.24
75431;BMP280;64127;51.488;5.462;2023-07-13T07:30:56;101290.53;;;19.29
75431;BMP280;64127;51.488;5.462;2023-07-13T07:33:36;101298.59;;;19.35
75431;BMP280;64127;51.488;5.462;2023-07-13T07:36:30;101284.34;;;19.30
75431;BMP280;64127;51.488;5.462;2023-07-13T07:39:16;101298.81;;;19.50
75431;BMP280;64127;51.488;5.462;2023-07-13T07:41:56;101401.91;;;20.39
75431;BMP280;64127;51.488;5.462;2023-07-13T07:44:43;101443.16;;;20.77
75431;BMP280;64127;51.488;5.462;2023-07-13T07:47:18;101297.78;;;20.16
75431;BMP280;64127;51.488;5.462;2023-07-13T07:49:55;101338.03;;;20.46
75431;BMP280;64127;51.488;5.462;2023-07-13T07:52:27;101339.78;;;20.43
75431;BMP280;64127;51.488;5.462;2023-07-13T07:55:16;101341.56;;;20.45
75431;BMP280;64127;51.488;5.462;2023-07-13T07:57:53;101302.31;;;20.26
75431;BMP280;64127;51.488;5.462;2023-07-13T08:00:35;101378.31;;;20.83
75431;BMP280;64127;51.488;5.462;2023-07-13T08:03:36;101323.97;;;20.65
75431;BMP280;64127;51.488;5.462;2023-07-13T08:06:17;101436.63;;;21.46
75431;BMP280;64127;51.488;5.462;2023-07-13T08:08:55;101298.25;;;20.69
75431;BMP280;64127;51.488;5.462;2023-07-13T08:11:28;101290.25;;;20.64
75431;BMP280;64127;51.488;5.462;2023-07-13T08:14:03;101432.09;;;21.34
75431;BMP280;64127;51.488;5.462;2023-07-13T08:16:35;101294.59;;;20.53
75431;BMP280;64127;51.488;5.462;2023-07-13T08:19:08;101380.34;;;21.09
75431;BMP280;64127;51.488;5.462;2023-07-13T08:21:40;101414.41;;;21.51
75431;BMP280;64127;51.488;5.462;2023-07-13T08:24:23;101295.81;;;21.04
75431;BMP280;64127;51.488;5.462;2023-07-13T08:26:56;101343.22;;;21.47
75431;BMP280;64127;51.488;5.462;2023-07-13T08:29:31;101432.59;;;22.19
75431;BMP280;64127;51.488;5.462;2023-07-13T08:32:07;101429.03;;;22.18
75431;BMP280;64127;51.488;5.462;2023-07-13T08:34:44;101436.16;;;22.26
75431;BMP280;64127;51.488;5.462;2023-07-13T08:37:17;101429.91;;;22.30
75431;BMP280;64127;51.488;5.462;2023-07-13T08:39:49;101408.53;;;22.23
75431;BMP280;64127;51.488;5.462;2023-07-13T08:42:45;101364.75;;;21.87
75431;BMP280;64127;51.488;5.462;2023-07-13T08:45:30;101437.00;;;22.11
75431;BMP280;64127;51.488;5.462;2023-07-13T08:48:27;101414.72;;;22.07
75431;BMP280;64127;51.488;5.462;2023-07-13T08:51:45;101414.75;;;22.21
75431;BMP280;64127;51.488;5.462;2023-07-13T08:54:47;101409.44;;;22.30
75431;BMP280;64127;51.488;5.462;2023-07-13T08:57:27;101417.50;;;22.39
75431;BMP280;64127;51.488;5.462;2023-07-13T09:00:02;101378.28;;;22.32
75431;BMP280;64127;51.488;5.462;2023-07-13T09:02:57;101363.13;;;22.28
75431;BMP280;64127;51.488;5.462;2023-07-13T09:05:34;101353.31;;;22.32
75431;BMP280;64127;51.488;5.462;2023-07-13T09:08:38;101427.41;;;22.70
75431;BMP280;64127;51.488;5.462;2023-07-13T09:11:45;101421.97;;;22.61
75431;BMP280;64127;51.488;5.462;2023-07-13T09:17:35;101399.75;;;22.84
75431;BMP280;64127;51.488;5.462;2023-07-13T09:20:39;101413.13;;;23.14
75431;BMP280;64127;51.488;5.462;2023-07-13T09:23:19;101411.34;;;23.01
75431;BMP280;64127;51.488;5.462;2023-07-13T09:26:20;101422.03;;;22.89
75431;BMP280;64127;51.488;5.462;2023-07-13T09:29:06;101432.75;;;22.86
75431;BMP280;64127;51.488;5.462;2023-07-13T09:31:52;101407.75;;;22.71
75431;BMP280;64127;51.488;5.462;2023-07-13T09:34:25;101403.31;;;22.69
75431;BMP280;64127;51.488;5.462;2023-07-13T09:36:58;101418.47;;;22.93
75431;BMP280;64127;51.488;5.462;2023-07-13T09:39:37;101412.22;;;22.97
75431;BMP280;64127;51.488;5.462;2023-07-13T09:42:22;101420.25;;;23.00
75431;BMP280;64127;51.488;5.462;2023-07-13T09:45:01;101411.34;;;22.90
75431;BMP280;64127;51.488;5.462;2023-07-13T09:47:40;101304.31;;;22.20
75431;BMP280;64127;51.488;5.462;2023-07-13T09:50:17;101424.69;;;22.92
75431;BMP280;64127;51.488;5.462;2023-07-13T09:52:50;101421.16;;;23.11
75431;BMP280;64127;51.488;5.462;2023-07-13T09:55:37;101398.81;;;23.30
75431;BMP280;64127;51.488;5.462;2023-07-13T09:58:34;101375.63;;;23.23
75431;BMP280;64127;51.488;5.462;2023-07-13T10:01:07;101417.53;;;23.51
75431;BMP280;64127;51.488;5.462;2023-07-13T10:03:53;101421.06;;;23.73
75431;BMP280;64127;51.488;5.462;2023-07-13T10:06:30;101326.53;;;23.32
75431;BMP280;64127;51.488;5.462;2023-07-13T10:09:02;101363.91;;;23.66
75431;BMP280;64127;51.488;5.462;2023-07-13T10:11:40;101401.28;;;24.07
75431;BMP280;64127;51.488;5.462;2023-07-13T10:14:18;101379.00;;;23.89
75431;BMP280;64127;51.488;5.462;2023-07-13T10:17:04;101289.06;;;23.19
75431;BMP280;64127;51.488;5.462;2023-07-13T10:19:55;101420.09;;;23.88
75431;BMP280;64127;51.488;5.462;2023-07-13T10:25:27;101403.84;;;24.30
75431;BMP280;64127;51.488;5.462;2023-07-13T10:28:27;101432.44;;;24.34
75431;BMP280;64127;51.488;5.462;2023-07-13T10:31:33;101285.47;;;23.45
75431;BMP280;64127;51.488;5.462;2023-07-13T10:34:11;101384.34;;;23.95
75431;BMP280;64127;51.488;5.462;2023-07-13T10:36:48;101421.84;;;24.04
75431;BMP280;64127;51.488;5.462;2023-07-13T10:39:39;101371.84;;;23.97
75431;BMP280;64127;51.488;5.462;2023-07-13T10:42:37;101365.56;;;23.98
75431;BMP280;64127;51.488;5.462;2023-07-13T10:45:20;101295.28;;;23.46
75431;BMP280;64127;51.488;5.462;2023-07-13T10:47:58;101370.16;;;23.71
75431;BMP280;64127;51.488;5.462;2023-07-13T10:50:54;101365.78;;;23.45
75431;BMP280;64127;51.488;5.462;2023-07-13T10:54:31;101412.19;;;23.27
75431;BMP280;64127;51.488;5.462;2023-07-13T10:57:30;101370.31;;;22.74
75431;BMP280;64127;51.488;5.462;2023-07-13T11:02:38;101453.25;;;22.81
75431;BMP280;64127;51.488;5.462;2023-07-13T11:05:32;101440.72;;;22.63
75431;BMP280;64127;51.488;5.462;2023-07-13T11:08:32;101464.84;;;22.83
75431;BMP280;64127;51.488;5.462;2023-07-13T11:14:02;101446.03;;;23.73
75431;BMP280;64127;51.488;5.462;2023-07-13T11:16:46;101448.66;;;24.04
75431;BMP280;64127;51.488;5.462;2023-07-13T11:25:00;101410.28;;;23.85
75431;BMP280;64127;51.488;5.462;2023-07-13T11:27:43;101434.34;;;24.14
75431;BMP280;64127;51.488;5.462;2023-07-13T11:33:22;101436.03;;;24.30
75431;BMP280;64127;51.488;5.462;2023-07-13T11:36:03;101432.53;;;24.10
75431;BMP280;64127;51.488;5.462;2023-07-13T11:39:32;101348.84;;;23.41
75431;BMP280;64127;51.488;5.462;2023-07-13T11:42:12;101404.09;;;23.66
75431;BMP280;64127;51.488;5.462;2023-07-13T11:44:53;101433.56;;;23.80
75431;BMP280;64127;51.488;5.462;2023-07-13T11:47:45;101371.16;;;23.45
75431;BMP280;64127;51.488;5.462;2023-07-13T11:50:24;101454.03;;;23.95
75431;BMP280;64127;51.488;5.462;2023-07-13T11:52:59;101448.66;;;23.92
75431;BMP280;64127;51.488;5.462;2023-07-13T11:55:38;101367.59;;;23.41
75431;BMP280;64127;51.488;5.462;2023-07-13T11:58:26;101316.78;;;23.06
75431;BMP280;64127;51.488;5.462;2023-07-13T12:01:06;101320.34;;;23.04
75431;BMP280;64127;51.488;5.462;2023-07-13T12:03:45;101447.84;;;23.70
75431;BMP280;64127;51.488;5.462;2023-07-13T12:06:39;101397.94;;;23.27
75431;BMP280;64127;51.488;5.462;2023-07-13T12:09:17;101380.09;;;23.13
75431;BMP280;64127;51.488;5.462;2023-07-13T12:11:50;101384.59;;;23.11
75431;BMP280;64127;51.488;5.462;2023-07-13T12:14:23;101372.97;;;23.02
75431;BMP280;64127;51.488;5.462;2023-07-13T12:17:18;101401.47;;;23.38
75431;BMP280;64127;51.488;5.462;2023-07-13T12:19:53;101387.16;;;23.57
75431;BMP280;64127;51.488;5.462;2023-07-13T12:22:27;101404.00;;;23.95
75431;BMP280;64127;51.488;5.462;2023-07-13T12:24:59;101423.50;;;24.32
75431;BMP280;64127;51.488;5.462;2023-07-13T12:27:32;101414.56;;;24.33
75431;BMP280;64127;51.488;5.462;2023-07-13T12:30:31;101452.03;;;24.47
75431;BMP280;64127;51.488;5.462;2023-07-13T12:33:13;101427.16;;;24.19
75431;BMP280;64127;51.488;5.462;2023-07-13T12:35:52;101385.22;;;23.98
75431;BMP280;64127;51.488;5.462;2023-07-13T12:38:37;101400.31;;;24.22
75431;BMP280;64127;51.488;5.462;2023-07-13T12:41:10;101394.94;;;24.28
75431;BMP280;64127;51.488;5.462;2023-07-13T12:43:45;101379.78;;;24.21
75431;BMP280;64127;51.488;5.462;2023-07-13T12:46:26;101415.47;;;24.29
75431;BMP280;64127;51.488;5.462;2023-07-13T12:49:07;101329.97;;;23.70
75431;BMP280;64127;51.488;5.462;2023-07-13T12:51:56;101455.66;;;24.35
75431;BMP280;64127;51.488;5.462;2023-07-13T12:54:42;101363.03;;;23.67
75431;BMP280;64127;51.488;5.462;2023-07-13T12:57:57;101412.94;;;23.93
75431;BMP280;64127;51.488;5.462;2023-07-13T13:00:36;101461.13;;;24.11
75431;BMP280;64127;51.488;5.462;2023-07-13T13:03:39;101450.44;;;23.99
75431;BMP280;64127;51.488;5.462;2023-07-13T13:08:57;101438.03;;;23.70
75431;BMP280;64127;51.488;5.462;2023-07-13T13:11:31;101425.56;;;23.39
75431;BMP280;64127;51.488;5.462;2023-07-13T13:14:04;101480.00;;;23.56
75431;BMP280;64127;51.488;5.462;2023-07-13T13:16:50;101482.72;;;23.44
75431;BMP280;64127;51.488;5.462;2023-07-13T13:19:28;101468.44;;;23.24
75431;BMP280;64127;51.488;5.462;2023-07-13T13:22:00;101484.50;;;23.24
75431;BMP280;64127;51.488;5.462;2023-07-13T13:24:33;101480.03;;;23.24
75431;BMP280;64127;51.488;5.462;2023-07-13T13:27:14;101422.91;;;22.82
75431;BMP280;64127;51.488;5.462;2023-07-13T13:29:50;101494.28;;;23.16
75431;BMP280;64127;51.488;5.462;2023-07-13T13:32:23;101493.41;;;23.20
75431;BMP280;64127;51.488;5.462;2023-07-13T13:34:55;101496.06;;;23.29
75431;BMP280;64127;51.488;5.462;2023-07-13T13:37:28;101471.09;;;23.19
75431;BMP280;64127;51.488;5.462;2023-07-13T13:40:00;101494.31;;;23.39
75431;BMP280;64127;51.488;5.462;2023-07-13T13:42:40;101493.41;;;23.37
75431;BMP280;64127;51.488;5.462;2023-07-13T13:45:14;101452.38;;;23.16
75431;BMP280;64127;51.488;5.462;2023-07-13T13:47:48;101396.16;;;22.92
75431;BMP280;64127;51.488;5.462;2023-07-13T13:50:22;101482.72;;;23.47
75431;BMP280;64127;51.488;5.462;2023-07-13T13:52:54;101507.69;;;23.61
75431;BMP280;64127;51.488;5.462;2023-07-13T13:55:27;101449.69;;;23.30
75431;BMP280;64127;51.488;5.462;2023-07-13T13:57:59;101471.13;;;23.44
75431;BMP280;64127;51.488;5.462;2023-07-13T14:00:32;101465.72;;;23.36
75431;BMP280;64127;51.488;5.462;2023-07-13T14:03:13;101405.09;;;22.96
75431;BMP280;64127;51.488;5.462;2023-07-13T14:05:48;101446.13;;;23.20
75431;BMP280;64127;51.488;5.462;2023-07-13T14:08:21;101383.69;;;22.78
75431;BMP280;64127;51.488;5.462;2023-07-13T14:10:57;101461.31;;;23.21
75431;BMP280;64127;51.488;5.462;2023-07-13T14:13:45;101402.41;;;22.96
75431;BMP280;64127;51.488;5.462;2023-07-13T14:16:25;101366.75;;;22.76
75431;BMP280;64127;51.488;5.462;2023-07-13T14:19:01;101489.88;;;23.48
75431;BMP280;64127;51.488;5.462;2023-07-13T14:21:34;101496.97;;;23.40
75431;BMP280;64127;51.488;5.462;2023-07-13T14:24:13;101400.66;;;22.73
75431;BMP280;64127;51.488;5.462;2023-07-13T14:26:53;101471.13;;;23.04
75431;BMP280;64127;51.488;5.462;2023-07-13T14:29:26;101389.00;;;22.43
75431;BMP280;64127;51.488;5.462;2023-07-13T14:31:59;101422.94;;;22.69
75431;BMP280;64127;51.488;5.462;2023-07-13T14:34:40;101432.75;;;23.01
75431;BMP280;64127;51.488;5.462;2023-07-13T14:37:15;101520.19;;;23.64
75431;BMP280;64127;51.488;5.462;2023-07-13T14:39:51;101382.78;;;22.79
75431;BMP280;64127;51.488;5.462;2023-07-13T14:42:32;101389.94;;;22.80
75431;BMP280;64127;51.488;5.462;2023-07-13T14:45:14;101506.81;;;23.35
75431;BMP280;64127;51.488;5.462;2023-07-13T14:47:47;101515.72;;;23.40
75431;BMP280;64127;51.488;5.462;2023-07-13T14:50:32;101439.00;;;23.01
75431;BMP280;64127;51.488;5.462;2023-07-13T14:53:08;101521.09;;;23.46
75431;BMP280;64127;51.488;5.462;2023-07-13T14:55:41;101496.09;;;23.43
75431;BMP280;64127;51.488;5.462;2023-07-13T14:58:15;101503.25;;;23.44
75431;BMP280;64127;51.488;5.462;2023-07-13T15:00:48;101492.53;;;23.47
75431;BMP280;64127;51.488;5.462;2023-07-13T15:03:24;101512.16;;;23.71
75431;BMP280;64127;51.488;5.462;2023-07-13T15:05:57;101487.19;;;23.56
75431;BMP280;64127;51.488;5.462;2023-07-13T15:08:30;101501.44;;;23.61
75431;BMP280;64127;51.488;5.462;2023-07-13T15:11:02;101476.47;;;23.45
75431;BMP280;64127;51.488;5.462;2023-07-13T15:13:38;101497.00;;;23.54
75431;BMP280;64127;51.488;5.462;2023-07-13T15:16:19;101505.03;;;23.52
75431;BMP280;64127;51.488;5.462;2023-07-13T15:18:53;101503.25;;;23.47
75431;BMP280;64127;51.488;5.462;2023-07-13T15:21:26;101475.53;;;23.40